sensor_id;sensor_type;location;lat;lon;timestamp;P1;durP1;ratioP1;P2;durP2;ratioP2
9884;SDS011;4981;50.966;4.842;2024-02-21T00:01:51;21.63;;;8.90;;
9884;SDS011;4981;50.966;4.842;2024-02-21T00:04:18;21.33;;;8.43;;
9884;SDS011;4981;50.966;4.842;2024-02-21T00:06:45;21.50;;;8.87;;
9884;SDS011;4981;50.966;4.842;2024-02-21T00:09:13;19.23;;;9.17;;
9884;SDS011;4981;50.966;4.842;2024-02-21T00:11:40;24.23;;;9.43;;
9884;SDS011;4981;50.966;4.842;2024-02-21T00:14:07;25.30;;;10.03;;
9884;SDS011;4981;50.966;4.842;2024-02-21T00:16:34;25.57;;;9.77;;
9884;SDS011;4981;50.966;4.842;2024-02-21T00:19:01;24.07;;;9.60;;
9884;SDS011;4981;50.966;4.842;2024-02-21T00:21:29;23.20;;;9.30;;
9884;SDS011;4981;50.966;4.842;2024-02-21T00:23:56;23.87;;;9.07;;
9884;SDS011;4981;50.966;4.842;2024-02-21T00:26:24;19.73;;;8.93;;
9884;SDS011;4981;50.966;4.842;2024-02-21T00:28:51;24.87;;;9.13;;
9884;SDS011;4981;50.966;4.842;2024-02-21T00:31:19;22.03;;;8.57;;
9884;SDS011;4981;50.966;4.842;2024-02-21T00:33:46;20.87;;;8.10;;
9884;SDS011;4981;50.966;4.842;2024-02-21T00:36:13;21.13;;;8.77;;
9884;SDS011;4981;50.966;4.842;2024-02-21T00:38:41;24.20;;;9.10;;
9884;SDS011;4981;50.966;4.842;2024-02-21T00:41:08;26.30;;;9.30;;
9884;SDS011;4981;50.966;4.842;2024-02-21T00:43:36;27.53;;;9.40;;
9884;SDS011;4981;50.966;4.842;2024-02-21T00:46:04;25.77;;;10.03;;
9884;SDS011;4981;50.966;4.842;2024-02-21T00:48:32;22.87;;;10.10;;
9884;SDS011;4981;50.966;4.842;2024-02-21T00:51:00;23.17;;;10.27;;
9884;SDS011;4981;50.966;4.842;2024-02-21T00:53:27;17.77;;;9.67;;
9884;SDS011;4981;50.966;4.842;2024-02-21T00:55:54;28.03;;;8.80;;
9884;SDS011;4981;50.966;4.842;2024-02-21T00:58:22;23.57;;;9.17;;
9884;SDS011;4981;50.966;4.842;2024-02-21T01:00:50;22.43;;;9.80;;
9884;SDS011;4981;50.966;4.842;2024-02-21T01:03:17;22.70;;;9.73;;
9884;SDS011;4981;50.966;4.842;2024-02-21T01:05:44;21.57;;;9.90;;
9884;SDS011;4981;50.966;4.842;2024-02-21T01:08:11;21.77;;;9.67;;
9884;SDS011;4981;50.966;4.842;2024-02-21T01:10:38;20.13;;;8.60;;
9884;SDS011;4981;50.966;4.842;2024-02-21T01:13:05;20.30;;;9.80;;
9884;SDS011;4981;50.966;4.842;2024-02-21T01:15:33;18.13;;;8.93;;
9884;SDS011;4981;50.966;4.842;2024-02-21T01:18:02;23.97;;;10.00;;
9884;SDS011;4981;50.966;4.842;2024-02-21T01:20:30;22.70;;;11.00;;
9884;SDS011;4981;50.966;4.842;2024-02-21T01:22:57;28.43;;;11.00;;
9884;SDS011;4981;50.966;4.842;2024-02-21T01:25:24;19.50;;;8.83;;
9884;SDS011;4981;50.966;4.842;2024-02-21T01:27:51;18.10;;;9.50;;
9884;SDS011;4981;50.966;4.842;2024-02-21T01:33:06;22.50;;;9.03;;
9884;SDS011;4981;50.966;4.842;2024-02-21T01:35:34;18.83;;;8.57;;
9884;SDS011;4981;50.966;4.842;2024-02-21T01:38:02;18.73;;;9.30;;
9884;SDS011;4981;50.966;4.842;2024-02-21T01:40:29;19.97;;;9.03;;
9884;SDS011;4981;50.966;4.842;2024-02-21T01:42:56;18.00;;;9.73;;
9884;SDS011;4981;50.966;4.842;2024-02-21T01:45:23;19.20;;;9.80;;
9884;SDS011;4981;50.966;4.842;2024-02-21T01:47:50;19.03;;;8.83;;
9884;SDS011;4981;50.966;4.842;2024-02-21T01:50:19;18.60;;;9.00;;
9884;SDS011;4981;50.966;4.842;2024-02-21T01:52:46;18.13;;;8.60;;
9884;SDS011;4981;50.966;4.842;2024-02-21T01:55:16;19.73;;;8.50;;
9884;SDS011;4981;50.966;4.842;2024-02-21T01:57:43;14.73;;;8.20;;
9884;SDS011;4981;50.966;4.842;2024-02-21T02:00:12;20.37;;;8.50;;
9884;SDS011;4981;50.966;4.842;2024-02-21T02:02:40;26.73;;;9.47;;
9884;SDS011;4981;50.966;4.842;2024-02-21T02:05:10;16.03;;;7.87;;
9884;SDS011;4981;50.966;4.842;2024-02-21T02:07:38;18.57;;;8.10;;
9884;SDS011;4981;50.966;4.842;2024-02-21T02:10:06;16.50;;;7.97;;
9884;SDS011;4981;50.966;4.842;2024-02-21T02:12:35;19.80;;;7.50;;
9884;SDS011;4981;50.966;4.842;2024-02-21T02:15:03;17.43;;;7.53;;
9884;SDS011;4981;50.966;4.842;2024-02-21T02:17:30;15.50;;;7.30;;
9884;SDS011;4981;50.966;4.842;2024-02-21T02:19:57;17.27;;;7.07;;
9884;SDS011;4981;50.966;4.842;2024-02-21T02:22:26;16.13;;;7.20;;
9884;SDS011;4981;50.966;4.842;2024-02-21T02:24:56;17.57;;;7.47;;
9884;SDS011;4981;50.966;4.842;2024-02-21T02:27:24;16.67;;;7.30;;
9884;SDS011;4981;50.966;4.842;2024-02-21T02:29:51;9.97;;;5.90;;
9884;SDS011;4981;50.966;4.842;2024-02-21T02:32:18;12.13;;;6.43;;
9884;SDS011;4981;50.966;4.842;2024-02-21T02:34:45;15.60;;;6.57;;
9884;SDS011;4981;50.966;4.842;2024-02-21T02:37:12;16.70;;;7.20;;
9884;SDS011;4981;50.966;4.842;2024-02-21T02:39:39;16.20;;;6.80;;
9884;SDS011;4981;50.966;4.842;2024-02-21T02:42:07;13.47;;;6.27;;
9884;SDS011;4981;50.966;4.842;2024-02-21T02:44:35;16.57;;;7.30;;
9884;SDS011;4981;50.966;4.842;2024-02-21T02:47:02;15.60;;;8.10;;
9884;SDS011;4981;50.966;4.842;2024-02-21T02:49:29;17.10;;;7.33;;
9884;SDS011;4981;50.966;4.842;2024-02-21T02:51:56;18.23;;;7.70;;
9884;SDS011;4981;50.966;4.842;2024-02-21T02:54:23;17.53;;;7.63;;
9884;SDS011;4981;50.966;4.842;2024-02-21T02:56:50;15.63;;;7.40;;
9884;SDS011;4981;50.966;4.842;2024-02-21T02:59:19;18.23;;;7.47;;
9884;SDS011;4981;50.966;4.842;2024-02-21T03:01:45;15.43;;;6.93;;
9884;SDS011;4981;50.966;4.842;2024-02-21T03:04:13;16.17;;;7.30;;
9884;SDS011;4981;50.966;4.842;2024-02-21T03:06:40;13.87;;;5.67;;
9884;SDS011;4981;50.966;4.842;2024-02-21T03:09:06;19.13;;;8.30;;
9884;SDS011;4981;50.966;4.842;2024-02-21T03:11:34;18.20;;;7.67;;
9884;SDS011;4981;50.966;4.842;2024-02-21T03:14:02;14.30;;;6.17;;
9884;SDS011;4981;50.966;4.842;2024-02-21T03:16:31;16.80;;;6.53;;
9884;SDS011;4981;50.966;4.842;2024-02-21T03:18:58;18.30;;;7.33;;
9884;SDS011;4981;50.966;4.842;2024-02-21T03:21:25;13.90;;;6.10;;
9884;SDS011;4981;50.966;4.842;2024-02-21T03:23:52;16.13;;;7.53;;
9884;SDS011;4981;50.966;4.842;2024-02-21T03:26:19;19.80;;;7.60;;
9884;SDS011;4981;50.966;4.842;2024-02-21T03:28:46;15.70;;;6.70;;
9884;SDS011;4981;50.966;4.842;2024-02-21T03:31:13;11.47;;;7.27;;
9884;SDS011;4981;50.966;4.842;2024-02-21T03:33:42;15.87;;;7.37;;
9884;SDS011;4981;50.966;4.842;2024-02-21T03:36:12;15.43;;;7.70;;
9884;SDS011;4981;50.966;4.842;2024-02-21T03:38:40;17.10;;;7.87;;
9884;SDS011;4981;50.966;4.842;2024-02-21T03:41:07;17.23;;;7.73;;
9884;SDS011;4981;50.966;4.842;2024-02-21T03:43:34;14.17;;;7.00;;
9884;SDS011;4981;50.966;4.842;2024-02-21T03:46:01;14.90;;;7.40;;
9884;SDS011;4981;50.966;4.842;2024-02-21T03:48:28;13.17;;;6.90;;
9884;SDS011;4981;50.966;4.842;2024-02-21T03:50:56;18.00;;;7.50;;
9884;SDS011;4981;50.966;4.842;2024-02-21T03:53:24;13.20;;;6.73;;
9884;SDS011;4981;50.966;4.842;2024-02-21T03:55:51;16.60;;;7.00;;
9884;SDS011;4981;50.966;4.842;2024-02-21T03:58:18;17.83;;;7.93;;
9884;SDS011;4981;50.966;4.842;2024-02-21T04:00:45;13.17;;;7.43;;
9884;SDS011;4981;50.966;4.842;2024-02-21T04:03:12;13.50;;;6.63;;
9884;SDS011;4981;50.966;4.842;2024-02-21T04:05:39;16.60;;;7.10;;
9884;SDS011;4981;50.966;4.842;2024-02-21T04:08:08;15.67;;;7.03;;
9884;SDS011;4981;50.966;4.842;2024-02-21T04:10:34;14.83;;;7.23;;
9884;SDS011;4981;50.966;4.842;2024-02-21T04:13:02;13.90;;;7.20;;
9884;SDS011;4981;50.966;4.842;2024-02-21T04:15:30;17.27;;;7.17;;
9884;SDS011;4981;50.966;4.842;2024-02-21T04:17:57;12.90;;;6.70;;
9884;SDS011;4981;50.966;4.842;2024-02-21T04:20:24;14.93;;;6.00;;
9884;SDS011;4981;50.966;4.842;2024-02-21T04:22:51;17.93;;;7.43;;
9884;SDS011;4981;50.966;4.842;2024-02-21T04:25:19;12.53;;;6.20;;
9884;SDS011;4981;50.966;4.842;2024-02-21T04:27:46;16.17;;;7.03;;
9884;SDS011;4981;50.966;4.842;2024-02-21T04:30:13;14.63;;;6.87;;
9884;SDS011;4981;50.966;4.842;2024-02-21T04:32:41;19.60;;;7.27;;
9884;SDS011;4981;50.966;4.842;2024-02-21T04:35:08;15.80;;;6.87;;
9884;SDS011;4981;50.966;4.842;2024-02-21T04:37:35;18.07;;;7.50;;
9884;SDS011;4981;50.966;4.842;2024-02-21T04:40:03;13.20;;;7.00;;
9884;SDS011;4981;50.966;4.842;2024-02-21T04:42:32;14.53;;;7.10;;
9884;SDS011;4981;50.966;4.842;2024-02-21T04:44:59;16.07;;;8.17;;
9884;SDS011;4981;50.966;4.842;2024-02-21T04:47:26;13.67;;;7.37;;
9884;SDS011;4981;50.966;4.842;2024-02-21T04:49:53;13.77;;;6.77;;
9884;SDS011;4981;50.966;4.842;2024-02-21T04:52:20;16.50;;;7.27;;
9884;SDS011;4981;50.966;4.842;2024-02-21T04:54:47;18.57;;;7.23;;
9884;SDS011;4981;50.966;4.842;2024-02-21T04:57:15;19.60;;;7.20;;
9884;SDS011;4981;50.966;4.842;2024-02-21T04:59:44;15.40;;;6.43;;
9884;SDS011;4981;50.966;4.842;2024-02-21T05:02:12;18.03;;;7.47;;
9884;SDS011;4981;50.966;4.842;2024-02-21T05:04:39;15.63;;;7.27;;
9884;SDS011;4981;50.966;4.842;2024-02-21T05:07:06;14.13;;;7.77;;
9884;SDS011;4981;50.966;4.842;2024-02-21T05:09:36;16.20;;;7.97;;
9884;SDS011;4981;50.966;4.842;2024-02-21T05:12:03;11.40;;;6.87;;
9884;SDS011;4981;50.966;4.842;2024-02-21T05:14:30;13.57;;;6.63;;
9884;SDS011;4981;50.966;4.842;2024-02-21T05:16:58;9.50;;;5.67;;
9884;SDS011;4981;50.966;4.842;2024-02-21T05:19:25;18.17;;;8.57;;
9884;SDS011;4981;50.966;4.842;2024-02-21T05:21:52;16.17;;;10.17;;
9884;SDS011;4981;50.966;4.842;2024-02-21T05:24:19;18.33;;;8.57;;
9884;SDS011;4981;50.966;4.842;2024-02-21T05:26:46;15.83;;;8.30;;
9884;SDS011;4981;50.966;4.842;2024-02-21T05:29:13;15.30;;;8.13;;
9884;SDS011;4981;50.966;4.842;2024-02-21T05:31:54;17.10;;;8.70;;
9884;SDS011;4981;50.966;4.842;2024-02-21T05:34:24;14.50;;;8.40;;
9884;SDS011;4981;50.966;4.842;2024-02-21T05:36:51;15.70;;;7.53;;
9884;SDS011;4981;50.966;4.842;2024-02-21T05:39:19;15.17;;;8.00;;
9884;SDS011;4981;50.966;4.842;2024-02-21T05:41:47;13.17;;;8.10;;
9884;SDS011;4981;50.966;4.842;2024-02-21T05:44:15;14.13;;;7.60;;
9884;SDS011;4981;50.966;4.842;2024-02-21T05:46:42;12.73;;;7.67;;
9884;SDS011;4981;50.966;4.842;2024-02-21T05:49:09;13.93;;;6.83;;
9884;SDS011;4981;50.966;4.842;2024-02-21T05:51:37;12.23;;;7.17;;
9884;SDS011;4981;50.966;4.842;2024-02-21T05:54:04;12.50;;;6.80;;
9884;SDS011;4981;50.966;4.842;2024-02-21T05:56:32;10.80;;;6.30;;
9884;SDS011;4981;50.966;4.842;2024-02-21T05:58:59;12.73;;;6.97;;
9884;SDS011;4981;50.966;4.842;2024-02-21T06:01:27;9.27;;;5.50;;
9884;SDS011;4981;50.966;4.842;2024-02-21T06:03:54;13.33;;;7.13;;
9884;SDS011;4981;50.966;4.842;2024-02-21T06:06:21;11.47;;;7.10;;
9884;SDS011;4981;50.966;4.842;2024-02-21T06:08:49;17.00;;;7.43;;
9884;SDS011;4981;50.966;4.842;2024-02-21T06:11:16;13.23;;;7.77;;
9884;SDS011;4981;50.966;4.842;2024-02-21T06:13:43;13.73;;;7.03;;
9884;SDS011;4981;50.966;4.842;2024-02-21T06:16:10;18.50;;;7.80;;
9884;SDS011;4981;50.966;4.842;2024-02-21T06:18:38;12.70;;;7.97;;
9884;SDS011;4981;50.966;4.842;2024-02-21T06:21:05;14.23;;;7.00;;
9884;SDS011;4981;50.966;4.842;2024-02-21T06:23:33;10.90;;;6.77;;
9884;SDS011;4981;50.966;4.842;2024-02-21T06:26:01;12.87;;;7.90;;
9884;SDS011;4981;50.966;4.842;2024-02-21T06:28:28;11.10;;;6.00;;
9884;SDS011;4981;50.966;4.842;2024-02-21T06:30:55;11.67;;;6.73;;
9884;SDS011;4981;50.966;4.842;2024-02-21T06:33:22;15.50;;;7.33;;
9884;SDS011;4981;50.966;4.842;2024-02-21T06:35:50;12.63;;;7.57;;
9884;SDS011;4981;50.966;4.842;2024-02-21T06:38:18;9.77;;;5.93;;
9884;SDS011;4981;50.966;4.842;2024-02-21T06:40:45;8.33;;;5.67;;
9884;SDS011;4981;50.966;4.842;2024-02-21T06:43:19;11.17;;;5.70;;
9884;SDS011;4981;50.966;4.842;2024-02-21T06:45:47;9.87;;;5.70;;
9884;SDS011;4981;50.966;4.842;2024-02-21T06:48:16;12.13;;;5.97;;
9884;SDS011;4981;50.966;4.842;2024-02-21T06:50:44;8.40;;;5.03;;
9884;SDS011;4981;50.966;4.842;2024-02-21T06:53:11;7.53;;;3.33;;
9884;SDS011;4981;50.966;4.842;2024-02-21T06:55:38;8.87;;;4.00;;
9884;SDS011;4981;50.966;4.842;2024-02-21T06:58:05;9.30;;;5.53;;
9884;SDS011;4981;50.966;4.842;2024-02-21T07:00:38;8.03;;;4.70;;
9884;SDS011;4981;50.966;4.842;2024-02-21T07:03:05;8.43;;;4.90;;
9884;SDS011;4981;50.966;4.842;2024-02-21T07:05:32;10.93;;;4.67;;
9884;SDS011;4981;50.966;4.842;2024-02-21T07:07:59;8.87;;;5.20;;
9884;SDS011;4981;50.966;4.842;2024-02-21T07:10:26;8.60;;;5.00;;
9884;SDS011;4981;50.966;4.842;2024-02-21T07:12:54;10.50;;;6.13;;
9884;SDS011;4981;50.966;4.842;2024-02-21T07:15:21;9.87;;;5.70;;
9884;SDS011;4981;50.966;4.842;2024-02-21T07:17:53;9.47;;;5.77;;
9884;SDS011;4981;50.966;4.842;2024-02-21T07:20:20;10.17;;;5.17;;
9884;SDS011;4981;50.966;4.842;2024-02-21T07:22:47;8.83;;;6.23;;
9884;SDS011;4981;50.966;4.842;2024-02-21T07:25:14;12.23;;;6.37;;
9884;SDS011;4981;50.966;4.842;2024-02-21T07:27:41;8.87;;;6.50;;
9884;SDS011;4981;50.966;4.842;2024-02-21T07:30:09;15.33;;;7.93;;
9884;SDS011;4981;50.966;4.842;2024-02-21T07:32:37;13.83;;;7.70;;
9884;SDS011;4981;50.966;4.842;2024-02-21T07:35:05;11.20;;;7.10;;
9884;SDS011;4981;50.966;4.842;2024-02-21T07:37:35;12.07;;;8.17;;
9884;SDS011;4981;50.966;4.842;2024-02-21T07:40:04;12.97;;;7.70;;
9884;SDS011;4981;50.966;4.842;2024-02-21T07:42:32;12.83;;;8.10;;
9884;SDS011;4981;50.966;4.842;2024-02-21T07:44:59;12.97;;;8.20;;
9884;SDS011;4981;50.966;4.842;2024-02-21T07:47:26;13.83;;;7.67;;
9884;SDS011;4981;50.966;4.842;2024-02-21T07:49:53;14.13;;;9.07;;
9884;SDS011;4981;50.966;4.842;2024-02-21T07:52:21;12.97;;;8.47;;
9884;SDS011;4981;50.966;4.842;2024-02-21T07:54:49;16.50;;;9.33;;
9884;SDS011;4981;50.966;4.842;2024-02-21T07:57:16;12.07;;;7.90;;
9884;SDS011;4981;50.966;4.842;2024-02-21T07:59:43;14.80;;;8.87;;
9884;SDS011;4981;50.966;4.842;2024-02-21T08:02:12;15.10;;;8.97;;
9884;SDS011;4981;50.966;4.842;2024-02-21T08:04:54;13.80;;;8.20;;
9884;SDS011;4981;50.966;4.842;2024-02-21T08:07:22;15.77;;;8.57;;
9884;SDS011;4981;50.966;4.842;2024-02-21T08:09:49;12.73;;;8.53;;
9884;SDS011;4981;50.966;4.842;2024-02-21T08:12:16;15.77;;;9.10;;
9884;SDS011;4981;50.966;4.842;2024-02-21T08:14:43;16.43;;;8.17;;
9884;SDS011;4981;50.966;4.842;2024-02-21T08:17:10;14.47;;;8.60;;
9884;SDS011;4981;50.966;4.842;2024-02-21T08:19:37;14.43;;;8.60;;
9884;SDS011;4981;50.966;4.842;2024-02-21T08:22:04;12.20;;;6.73;;
9884;SDS011;4981;50.966;4.842;2024-02-21T08:24:32;11.27;;;7.20;;
9884;SDS011;4981;50.966;4.842;2024-02-21T08:26:59;12.57;;;8.10;;
9884;SDS011;4981;50.966;4.842;2024-02-21T08:29:26;14.90;;;7.40;;
9884;SDS011;4981;50.966;4.842;2024-02-21T08:31:53;15.40;;;8.40;;
9884;SDS011;4981;50.966;4.842;2024-02-21T08:34:20;17.87;;;8.23;;
9884;SDS011;4981;50.966;4.842;2024-02-21T08:36:47;15.07;;;7.40;;
9884;SDS011;4981;50.966;4.842;2024-02-21T08:39:15;14.00;;;7.27;;
9884;SDS011;4981;50.966;4.842;2024-02-21T08:41:43;13.93;;;6.90;;
9884;SDS011;4981;50.966;4.842;2024-02-21T08:44:10;14.00;;;6.47;;
9884;SDS011;4981;50.966;4.842;2024-02-21T08:46:37;15.50;;;6.80;;
9884;SDS011;4981;50.966;4.842;2024-02-21T08:49:05;13.97;;;6.37;;
9884;SDS011;4981;50.966;4.842;2024-02-21T08:51:32;10.67;;;5.83;;
9884;SDS011;4981;50.966;4.842;2024-02-21T08:54:00;12.87;;;6.67;;
9884;SDS011;4981;50.966;4.842;2024-02-21T08:56:29;14.23;;;6.60;;
9884;SDS011;4981;50.966;4.842;2024-02-21T08:58:59;12.33;;;5.70;;
9884;SDS011;4981;50.966;4.842;2024-02-21T09:01:26;9.40;;;6.53;;
9884;SDS011;4981;50.966;4.842;2024-02-21T09:03:54;12.27;;;5.93;;
9884;SDS011;4981;50.966;4.842;2024-02-21T09:06:21;16.90;;;7.47;;
9884;SDS011;4981;50.966;4.842;2024-02-21T09:08:48;10.00;;;5.03;;
9884;SDS011;4981;50.966;4.842;2024-02-21T09:11:15;14.10;;;6.00;;
9884;SDS011;4981;50.966;4.842;2024-02-21T09:13:43;10.10;;;5.27;;
9884;SDS011;4981;50.966;4.842;2024-02-21T09:16:12;13.10;;;5.23;;
9884;SDS011;4981;50.966;4.842;2024-02-21T09:18:39;9.93;;;4.67;;
9884;SDS011;4981;50.966;4.842;2024-02-21T09:21:06;9.03;;;4.90;;
9884;SDS011;4981;50.966;4.842;2024-02-21T09:23:33;8.43;;;5.17;;
9884;SDS011;4981;50.966;4.842;2024-02-21T09:26:00;14.53;;;7.07;;
9884;SDS011;4981;50.966;4.842;2024-02-21T09:28:29;31.43;;;15.77;;
9884;SDS011;4981;50.966;4.842;2024-02-21T09:30:56;38.10;;;22.00;;
9884;SDS011;4981;50.966;4.842;2024-02-21T09:33:24;13.37;;;6.30;;
9884;SDS011;4981;50.966;4.842;2024-02-21T09:35:51;10.33;;;5.03;;
9884;SDS011;4981;50.966;4.842;2024-02-21T09:38:18;8.30;;;5.27;;
9884;SDS011;4981;50.966;4.842;2024-02-21T09:40:46;9.67;;;5.23;;
9884;SDS011;4981;50.966;4.842;2024-02-21T09:43:13;6.77;;;3.87;;
9884;SDS011;4981;50.966;4.842;2024-02-21T09:45:46;6.83;;;3.87;;
9884;SDS011;4981;50.966;4.842;2024-02-21T09:48:25;8.63;;;4.80;;
9884;SDS011;4981;50.966;4.842;2024-02-21T09:50:57;11.63;;;4.93;;
9884;SDS011;4981;50.966;4.842;2024-02-21T09:53:26;10.40;;;6.00;;
9884;SDS011;4981;50.966;4.842;2024-02-21T09:55:54;8.13;;;3.90;;
9884;SDS011;4981;50.966;4.842;2024-02-21T09:58:22;6.70;;;3.77;;
9884;SDS011;4981;50.966;4.842;2024-02-21T10:00:52;9.17;;;3.80;;
9884;SDS011;4981;50.966;4.842;2024-02-21T10:03:19;7.70;;;3.83;;
9884;SDS011;4981;50.966;4.842;2024-02-21T10:05:48;7.80;;;3.80;;
9884;SDS011;4981;50.966;4.842;2024-02-21T10:08:16;7.20;;;3.17;;
9884;SDS011;4981;50.966;4.842;2024-02-21T10:10:46;9.93;;;4.13;;
9884;SDS011;4981;50.966;4.842;2024-02-21T10:13:23;7.37;;;4.13;;
9884;SDS011;4981;50.966;4.842;2024-02-21T10:16:00;9.07;;;4.50;;
9884;SDS011;4981;50.966;4.842;2024-02-21T10:18:28;8.93;;;3.53;;
9884;SDS011;4981;50.966;4.842;2024-02-21T10:21:03;6.83;;;3.70;;
9884;SDS011;4981;50.966;4.842;2024-02-21T10:23:44;7.83;;;3.80;;
9884;SDS011;4981;50.966;4.842;2024-02-21T10:26:11;9.77;;;4.27;;
9884;SDS011;4981;50.966;4.842;2024-02-21T10:28:39;11.07;;;4.13;;
9884;SDS011;4981;50.966;4.842;2024-02-21T10:31:07;7.07;;;3.50;;
9884;SDS011;4981;50.966;4.842;2024-02-21T10:33:35;6.53;;;3.73;;
9884;SDS011;4981;50.966;4.842;2024-02-21T10:36:08;10.47;;;3.80;;
9884;SDS011;4981;50.966;4.842;2024-02-21T10:38:39;7.60;;;3.67;;
9884;SDS011;4981;50.966;4.842;2024-02-21T10:41:07;11.93;;;3.63;;
9884;SDS011;4981;50.966;4.842;2024-02-21T10:43:37;10.93;;;3.60;;
9884;SDS011;4981;50.966;4.842;2024-02-21T10:46:06;7.10;;;3.60;;
9884;SDS011;4981;50.966;4.842;2024-02-21T10:48:38;11.00;;;3.60;;
9884;SDS011;4981;50.966;4.842;2024-02-21T10:51:14;8.77;;;3.63;;
9884;SDS011;4981;50.966;4.842;2024-02-21T10:53:47;12.60;;;4.17;;
9884;SDS011;4981;50.966;4.842;2024-02-21T10:56:26;9.43;;;3.40;;
9884;SDS011;4981;50.966;4.842;2024-02-21T10:58:54;10.33;;;3.80;;
9884;SDS011;4981;50.966;4.842;2024-02-21T11:01:24;9.77;;;3.60;;
9884;SDS011;4981;50.966;4.842;2024-02-21T11:03:54;11.50;;;4.00;;
9884;SDS011;4981;50.966;4.842;2024-02-21T11:06:24;9.93;;;3.37;;
9884;SDS011;4981;50.966;4.842;2024-02-21T11:09:00;7.47;;;3.37;;
9884;SDS011;4981;50.966;4.842;2024-02-21T11:11:29;8.67;;;2.70;;
9884;SDS011;4981;50.966;4.842;2024-02-21T11:14:08;7.63;;;3.10;;
9884;SDS011;4981;50.966;4.842;2024-02-21T11:16:36;9.17;;;2.87;;
9884;SDS011;4981;50.966;4.842;2024-02-21T11:19:07;10.40;;;3.17;;
9884;SDS011;4981;50.966;4.842;2024-02-21T11:21:37;9.23;;;3.43;;
9884;SDS011;4981;50.966;4.842;2024-02-21T11:24:06;8.33;;;3.60;;
9884;SDS011;4981;50.966;4.842;2024-02-21T11:26:36;6.23;;;2.93;;
9884;SDS011;4981;50.966;4.842;2024-02-21T11:29:04;6.70;;;3.30;;
9884;SDS011;4981;50.966;4.842;2024-02-21T11:31:40;6.90;;;2.80;;
9884;SDS011;4981;50.966;4.842;2024-02-21T11:34:10;12.90;;;2.97;;
9884;SDS011;4981;50.966;4.842;2024-02-21T11:36:47;7.00;;;2.53;;
9884;SDS011;4981;50.966;4.842;2024-02-21T11:39:21;9.97;;;2.83;;
9884;SDS011;4981;50.966;4.842;2024-02-21T11:44:33;6.53;;;2.73;;
9884;SDS011;4981;50.966;4.842;2024-02-21T11:47:03;6.93;;;2.97;;
9884;SDS011;4981;50.966;4.842;2024-02-21T11:49:30;8.37;;;2.40;;
9884;SDS011;4981;50.966;4.842;2024-02-21T11:51:59;8.93;;;2.60;;
9884;SDS011;4981;50.966;4.842;2024-02-21T11:54:29;7.73;;;2.70;;
9884;SDS011;4981;50.966;4.842;2024-02-21T11:56:56;6.77;;;2.13;;
9884;SDS011;4981;50.966;4.842;2024-02-21T11:59:23;5.57;;;2.23;;
9884;SDS011;4981;50.966;4.842;2024-02-21T12:01:50;6.03;;;2.40;;
9884;SDS011;4981;50.966;4.842;2024-02-21T12:04:17;6.37;;;2.80;;
9884;SDS011;4981;50.966;4.842;2024-02-21T12:06:45;7.93;;;3.20;;
9884;SDS011;4981;50.966;4.842;2024-02-21T12:09:15;5.03;;;2.20;;
9884;SDS011;4981;50.966;4.842;2024-02-21T12:11:42;5.40;;;2.57;;
9884;SDS011;4981;50.966;4.842;2024-02-21T12:14:10;5.10;;;1.93;;
9884;SDS011;4981;50.966;4.842;2024-02-21T12:16:37;5.53;;;3.20;;
9884;SDS011;4981;50.966;4.842;2024-02-21T12:19:04;5.87;;;2.67;;
9884;SDS011;4981;50.966;4.842;2024-02-21T12:21:31;7.57;;;3.20;;
9884;SDS011;4981;50.966;4.842;2024-02-21T12:24:11;4.97;;;2.57;;
9884;SDS011;4981;50.966;4.842;2024-02-21T12:26:40;5.83;;;2.13;;
9884;SDS011;4981;50.966;4.842;2024-02-21T12:29:07;5.50;;;2.40;;
9884;SDS011;4981;50.966;4.842;2024-02-21T12:31:35;6.37;;;2.40;;
9884;SDS011;4981;50.966;4.842;2024-02-21T12:34:03;6.07;;;2.83;;
9884;SDS011;4981;50.966;4.842;2024-02-21T12:36:30;3.97;;;2.47;;
9884;SDS011;4981;50.966;4.842;2024-02-21T12:38:57;7.67;;;3.30;;
9884;SDS011;4981;50.966;4.842;2024-02-21T12:41:26;6.00;;;2.90;;
9884;SDS011;4981;50.966;4.842;2024-02-21T12:43:56;4.63;;;2.10;;
9884;SDS011;4981;50.966;4.842;2024-02-21T12:46:23;5.80;;;2.20;;
9884;SDS011;4981;50.966;4.842;2024-02-21T12:48:50;4.63;;;2.17;;
9884;SDS011;4981;50.966;4.842;2024-02-21T12:51:17;4.57;;;2.10;;
9884;SDS011;4981;50.966;4.842;2024-02-21T12:53:46;4.17;;;2.60;;
9884;SDS011;4981;50.966;4.842;2024-02-21T12:56:14;9.03;;;2.73;;
9884;SDS011;4981;50.966;4.842;2024-02-21T12:58:41;5.10;;;2.40;;
9884;SDS011;4981;50.966;4.842;2024-02-21T13:01:11;5.07;;;2.73;;
9884;SDS011;4981;50.966;4.842;2024-02-21T13:03:38;8.17;;;2.80;;
9884;SDS011;4981;50.966;4.842;2024-02-21T13:06:05;6.07;;;2.20;;
9884;SDS011;4981;50.966;4.842;2024-02-21T13:08:35;7.57;;;2.93;;
9884;SDS011;4981;50.966;4.842;2024-02-21T13:11:02;7.97;;;3.27;;
9884;SDS011;4981;50.966;4.842;2024-02-21T13:13:30;7.30;;;2.50;;
9884;SDS011;4981;50.966;4.842;2024-02-21T13:15:57;5.73;;;2.50;;
9884;SDS011;4981;50.966;4.842;2024-02-21T13:18:26;4.87;;;2.43;;
9884;SDS011;4981;50.966;4.842;2024-02-21T13:20:53;7.93;;;5.03;;
9884;SDS011;4981;50.966;4.842;2024-02-21T13:23:20;8.33;;;3.03;;
9884;SDS011;4981;50.966;4.842;2024-02-21T13:25:47;4.90;;;2.10;;
9884;SDS011;4981;50.966;4.842;2024-02-21T13:28:14;7.53;;;2.63;;
9884;SDS011;4981;50.966;4.842;2024-02-21T13:30:41;5.20;;;3.03;;
9884;SDS011;4981;50.966;4.842;2024-02-21T13:33:08;9.07;;;4.93;;
9884;SDS011;4981;50.966;4.842;2024-02-21T13:35:37;6.80;;;4.13;;
9884;SDS011;4981;50.966;4.842;2024-02-21T13:38:05;4.33;;;2.23;;
9884;SDS011;4981;50.966;4.842;2024-02-21T13:40:32;4.20;;;2.70;;
9884;SDS011;4981;50.966;4.842;2024-02-21T13:43:00;6.63;;;2.60;;
9884;SDS011;4981;50.966;4.842;2024-02-21T13:45:27;5.73;;;3.30;;
9884;SDS011;4981;50.966;4.842;2024-02-21T13:47:53;4.90;;;2.30;;
9884;SDS011;4981;50.966;4.842;2024-02-21T13:50:21;11.83;;;3.53;;
9884;SDS011;4981;50.966;4.842;2024-02-21T13:52:51;6.07;;;3.30;;
9884;SDS011;4981;50.966;4.842;2024-02-21T13:55:18;8.87;;;3.90;;
9884;SDS011;4981;50.966;4.842;2024-02-21T13:57:47;10.57;;;3.50;;
9884;SDS011;4981;50.966;4.842;2024-02-21T14:00:14;8.47;;;3.07;;
9884;SDS011;4981;50.966;4.842;2024-02-21T14:02:43;8.90;;;3.93;;
9884;SDS011;4981;50.966;4.842;2024-02-21T14:05:11;10.23;;;4.50;;
9884;SDS011;4981;50.966;4.842;2024-02-21T14:07:39;8.07;;;4.13;;
9884;SDS011;4981;50.966;4.842;2024-02-21T14:10:08;8.37;;;3.33;;
9884;SDS011;4981;50.966;4.842;2024-02-21T14:12:35;8.97;;;2.93;;
9884;SDS011;4981;50.966;4.842;2024-02-21T14:15:03;9.70;;;3.47;;
9884;SDS011;4981;50.966;4.842;2024-02-21T14:17:31;7.37;;;3.37;;
9884;SDS011;4981;50.966;4.842;2024-02-21T14:19:58;6.30;;;2.77;;
9884;SDS011;4981;50.966;4.842;2024-02-21T14:22:25;5.63;;;2.57;;
9884;SDS011;4981;50.966;4.842;2024-02-21T14:24:52;6.40;;;3.20;;
9884;SDS011;4981;50.966;4.842;2024-02-21T14:27:21;7.97;;;2.90;;
9884;SDS011;4981;50.966;4.842;2024-02-21T14:29:48;5.70;;;3.00;;
9884;SDS011;4981;50.966;4.842;2024-02-21T14:32:15;5.90;;;2.97;;
9884;SDS011;4981;50.966;4.842;2024-02-21T14:34:42;6.37;;;3.27;;
9884;SDS011;4981;50.966;4.842;2024-02-21T14:37:09;7.20;;;3.20;;
9884;SDS011;4981;50.966;4.842;2024-02-21T14:39:36;5.57;;;2.80;;
9884;SDS011;4981;50.966;4.842;2024-02-21T14:42:03;8.30;;;4.03;;
9884;SDS011;4981;50.966;4.842;2024-02-21T14:44:31;4.77;;;3.40;;
9884;SDS011;4981;50.966;4.842;2024-02-21T14:47:00;8.40;;;2.90;;
9884;SDS011;4981;50.966;4.842;2024-02-21T14:49:28;5.83;;;2.90;;
9884;SDS011;4981;50.966;4.842;2024-02-21T14:51:55;5.10;;;2.57;;
9884;SDS011;4981;50.966;4.842;2024-02-21T14:54:22;9.77;;;4.13;;
9884;SDS011;4981;50.966;4.842;2024-02-21T14:56:49;7.40;;;3.00;;
9884;SDS011;4981;50.966;4.842;2024-02-21T14:59:16;7.80;;;3.07;;
9884;SDS011;4981;50.966;4.842;2024-02-21T15:01:45;6.20;;;3.17;;
9884;SDS011;4981;50.966;4.842;2024-02-21T15:04:12;12.17;;;4.47;;
9884;SDS011;4981;50.966;4.842;2024-02-21T15:06:39;6.57;;;3.63;;
9884;SDS011;4981;50.966;4.842;2024-02-21T15:09:06;6.03;;;3.17;;
9884;SDS011;4981;50.966;4.842;2024-02-21T15:11:33;5.77;;;3.40;;
9884;SDS011;4981;50.966;4.842;2024-02-21T15:14:00;10.77;;;4.07;;
9884;SDS011;4981;50.966;4.842;2024-02-21T15:16:27;5.93;;;2.67;;